Time;durP1;ratioP1;P1;durP2;ratioP2;P2;SDS_P1;SDS_P2;PMS_P1;PMS_P2;Temp;Humidity;BMP_temperature;BMP_pressure;BME280_temperature;BME280_humidity;BME280_pressure;Samples;Min_cycle;Max_cycle;Signal;HPM_P1;HPM_P2
2023/09/25 00:01:33;;;;;;;1.92;0.82;;;;;;;18.72;60.02;102090.09;5035926;28;20045;-56
2023/09/25 00:03:59;;;;;;;1.20;0.90;;;;;;;18.72;59.80;102090.09;5034305;28;20029;-56
2023/09/25 00:06:25;;;;;;;0.80;0.77;;;;;;;18.71;59.67;102096.44;5034151;28;20033;-56
2023/09/25 00:08:50;;;;;;;1.08;0.95;;;;;;;18.72;59.69;102098.19;5031188;28;20053;-56
2023/09/25 00:11:15;;;;;;;2.17;1.20;;;;;;;18.71;59.72;102088.34;5034835;28;20496;-56
2023/09/25 00:13:41;;;;;;;1.23;1.13;;;;;;;18.71;59.95;102096.44;5035370;28;20067;-56
2023/09/25 00:16:14;;;;;;;0.70;0.70;;;;;;;18.72;59.91;102092.78;5031973;28;20174;-56
2023/09/25 00:18:41;;;;;;;1.65;1.08;;;;;;;18.71;59.79;102091.06;5032951;28;20013;-56
2023/09/25 00:21:06;;;;;;;1.05;0.98;;;;;;;18.71;59.70;102095.59;5034041;28;20553;-56
2023/09/25 00:23:32;;;;;;;0.70;0.70;;;;;;;18.70;59.66;102100.16;5030416;28;20025;-56
2023/09/25 00:26:08;;;;;;;1.17;0.88;;;;;;;18.69;59.86;102095.72;5032547;28;20025;-56
2023/09/25 00:28:34;;;;;;;1.20;1.10;;;;;;;18.70;59.54;102102.00;5035054;28;20033;-56
2023/09/25 00:31:00;;;;;;;1.90;0.80;;;;;;;18.69;59.69;102098.41;5027935;28;20125;-56
2023/09/25 00:33:26;;;;;;;1.88;0.80;;;;;;;18.68;59.72;102095.88;5035167;28;20052;-56
2023/09/25 00:35:53;;;;;;;1.20;0.73;;;;;;;18.69;59.62;102093.00;5034307;28;20365;-56
2023/09/25 00:38:19;;;;;;;1.77;1.20;;;;;;;18.68;59.31;102090.47;5034235;28;20053;-56
2023/09/25 00:40:44;;;;;;;0.80;0.80;;;;;;;18.69;59.54;102097.56;5035047;28;20084;-56
2023/09/25 00:43:12;;;;;;;1.05;0.90;;;;;;;18.67;59.48;102102.22;5033108;28;20108;-56
2023/09/25 00:45:38;;;;;;;0.90;0.90;;;;;;;18.68;59.99;102102.09;5034166;28;20049;-56
2023/09/25 00:48:04;;;;;;;1.33;0.95;;;;;;;18.68;59.62;102102.09;5032723;28;20079;-56
2023/09/25 00:50:31;;;;;;;2.65;0.90;;;;;;;18.68;59.67;102102.09;5031266;28;20048;-56
2023/09/25 00:53:02;;;;;;;2.22;1.08;;;;;;;18.68;59.53;102095.88;5033656;28;20029;-56
2023/09/25 00:55:27;;;;;;;1.35;1.00;;;;;;;18.68;59.28;102102.09;5033662;28;20547;-56
2023/09/25 00:57:55;;;;;;;2.33;0.80;;;;;;;18.67;59.46;102100.38;5033861;28;20036;-55
2023/09/25 01:00:21;;;;;;;1.27;1.00;;;;;;;18.67;59.50;102089.59;5032384;28;20530;-55
2023/09/25 01:02:47;;;;;;;2.38;1.00;;;;;;;18.68;59.43;102098.56;5033825;28;20025;-55
2023/09/25 01:05:13;;;;;;;1.02;0.93;;;;;;;18.66;59.26;102098.66;5033567;28;20531;-55
2023/09/25 01:07:39;;;;;;;1.98;1.20;;;;;;;18.67;59.41;102100.38;5030881;28;20040;-55
2023/09/25 01:10:10;;;;;;;1.17;0.95;;;;;;;18.65;59.41;102102.34;5030711;28;20037;-55
2023/09/25 01:12:37;;;;;;;3.13;0.90;;;;;;;18.67;59.42;102105.78;5034081;28;20075;-55
2023/09/25 01:15:03;;;;;;;1.33;0.98;;;;;;;18.65;59.54;102107.72;5032818;28;20061;-55
2023/09/25 01:17:30;;;;;;;1.88;1.02;;;;;;;18.65;59.25;102106.88;5031452;28;20029;-55
2023/09/25 01:19:55;;;;;;;2.13;1.05;;;;;;;18.65;59.68;102112.28;5033918;28;20037;-55
2023/09/25 01:22:21;;;;;;;3.15;1.48;;;;;;;18.64;59.37;102103.34;5030769;28;20104;-55
2023/09/25 01:24:47;;;;;;;1.33;1.00;;;;;;;18.64;59.29;102102.44;5034222;28;20080;-55
2023/09/25 01:27:12;;;;;;;1.50;1.08;;;;;;;18.65;59.48;102090.69;5033451;28;20033;-56
2023/09/25 01:29:38;;;;;;;0.93;0.80;;;;;;;18.62;59.41;102094.50;5033600;28;20120;-55
2023/09/25 01:32:04;;;;;;;2.13;1.00;;;;;;;18.63;59.28;102098.06;5033798;28;20472;-55
2023/09/25 01:34:30;;;;;;;1.05;0.90;;;;;;;18.63;59.30;102098.91;5032681;28;20091;-55
2023/09/25 01:36:56;;;;;;;1.70;1.10;;;;;;;18.62;59.30;102097.19;5032678;28;20467;-55
2023/09/25 01:39:21;;;;;;;1.50;1.00;;;;;;;18.63;59.34;102089.97;5030720;28;20063;-55
2023/09/25 01:41:47;;;;;;;1.55;1.00;;;;;;;18.63;59.32;102087.25;5033400;28;20123;-55
2023/09/25 01:44:12;;;;;;;3.03;1.20;;;;;;;18.61;59.44;102090.06;5032715;28;20098;-55
2023/09/25 01:46:40;;;;;;;2.47;1.08;;;;;;;18.61;59.23;102098.16;5032483;28;20037;-55
2023/09/25 01:49:06;;;;;;;1.15;0.88;;;;;;;18.62;59.51;102091.81;5032551;28;20103;-55
2023/09/25 01:51:32;;;;;;;1.10;0.80;;;;;;;18.61;59.23;102094.63;5032896;28;20498;-55
2023/09/25 01:53:57;;;;;;;1.08;0.85;;;;;;;18.60;59.43;102093.75;5032935;28;20033;-55
2023/09/25 01:56:22;;;;;;;2.60;1.00;;;;;;;18.60;59.16;102088.38;5033405;28;20029;-55
2023/09/25 01:58:48;;;;;;;1.02;0.93;;;;;;;18.60;59.03;102091.06;5032088;28;20021;-55
2023/09/25 02:01:13;;;;;;;1.13;1.00;;;;;;;18.59;59.14;102092.03;5031246;28;20034;-55
2023/09/25 02:03:41;;;;;;;1.80;0.95;;;;;;;18.59;59.29;102089.34;5033267;28;20480;-55
2023/09/25 02:06:06;;;;;;;1.08;0.90;;;;;;;18.58;59.27;102079.50;5030253;28;20033;-55
2023/09/25 02:08:31;;;;;;;2.05;1.00;;;;;;;18.57;59.04;102075.13;5032389;28;20049;-55
2023/09/25 02:10:57;;;;;;;1.48;1.00;;;;;;;18.58;59.24;102086.75;5032707;28;20488;-55
2023/09/25 02:13:22;;;;;;;1.27;0.90;;;;;;;18.58;59.18;102084.06;5031483;28;20037;-55
2023/09/25 02:15:48;;;;;;;1.67;0.93;;;;;;;18.57;59.24;102083.19;5032234;28;20033;-55
2023/09/25 02:18:13;;;;;;;1.00;1.00;;;;;;;18.56;59.03;102071.56;5032735;28;20040;-55
2023/09/25 02:20:39;;;;;;;1.67;1.10;;;;;;;18.56;59.40;102073.38;5029997;28;20032;-55
2023/09/25 02:23:05;;;;;;;2.95;1.23;;;;;;;18.57;59.32;102075.13;5029860;28;20025;-55
2023/09/25 02:25:30;;;;;;;1.83;1.50;;;;;;;18.56;59.17;102071.56;5032118;28;20028;-55
2023/09/25 02:27:56;;;;;;;1.48;0.90;;;;;;;18.55;59.33;102074.38;5032585;28;20037;-55
2023/09/25 02:30:21;;;;;;;1.00;0.90;;;;;;;18.54;59.27;102078.91;5036512;28;20039;-55
2023/09/25 02:32:47;;;;;;;1.10;1.00;;;;;;;18.55;59.14;102074.38;5036624;28;20134;-55
2023/09/25 02:35:13;;;;;;;1.58;1.20;;;;;;;18.54;58.98;102076.22;5030924;28;20386;-55
2023/09/25 02:37:40;;;;;;;1.50;1.10;;;;;;;18.55;59.24;102080.63;5036912;28;20025;-55
2023/09/25 02:40:07;;;;;;;1.83;1.23;;;;;;;18.54;59.02;102078.03;5033644;28;20053;-55
2023/09/25 02:42:32;;;;;;;1.13;0.90;;;;;;;18.53;58.91;102071.78;5037010;28;20039;-55
2023/09/25 02:44:57;;;;;;;1.15;0.90;;;;;;;18.53;59.01;102079.88;5036793;28;20120;-55
2023/09/25 02:47:23;;;;;;;1.35;1.00;;;;;;;18.53;58.98;102076.34;5036233;28;20029;-56
2023/09/25 02:49:48;;;;;;;1.10;1.00;;;;;;;18.53;59.20;102069.09;5037052;28;20041;-55
2023/09/25 02:52:14;;;;;;;1.20;1.10;;;;;;;18.53;59.15;102073.63;5034823;28;20045;-55
2023/09/25 02:54:39;;;;;;;1.85;1.10;;;;;;;18.53;58.85;102081.72;5034452;28;20037;-55
2023/09/25 02:57:05;;;;;;;1.00;0.90;;;;;;;18.52;59.09;102075.50;5036029;28;20402;-55
2023/09/25 02:59:30;;;;;;;2.25;1.17;;;;;;;18.53;59.11;102065.53;5033456;28;20026;-55
2023/09/25 03:01:55;;;;;;;1.70;1.08;;;;;;;18.53;58.77;102076.34;5035673;28;20070;-56
2023/09/25 03:04:21;;;;;;;1.27;1.08;;;;;;;18.52;58.99;102070.09;5033546;28;20483;-55
2023/09/25 03:06:47;;;;;;;2.67;1.05;;;;;;;18.51;59.01;102068.34;5035529;28;20064;-55
2023/09/25 03:09:12;;;;;;;1.08;0.98;;;;;;;18.51;58.77;102072.91;5035063;28;20037;-55
2023/09/25 03:11:37;;;;;;;2.28;1.30;;;;;;;18.52;59.00;102069.22;5034484;28;20044;-55
2023/09/25 03:14:03;;;;;;;1.48;1.00;;;;;;;18.51;58.94;102078.28;5035210;28;20033;-55
2023/09/25 03:16:28;;;;;;;2.17;1.20;;;;;;;18.50;58.67;102073.88;5036763;28;20072;-55
2023/09/25 03:18:54;;;;;;;1.55;1.10;;;;;;;18.50;59.08;102071.16;5035781;28;20135;-56
2023/09/25 03:21:19;;;;;;;1.05;0.90;;;;;;;18.48;59.08;102073.97;5036310;28;20071;-55
2023/09/25 03:23:45;;;;;;;1.38;1.17;;;;;;;18.49;58.82;102069.47;5035163;28;20029;-55
2023/09/25 03:26:14;;;;;;;1.42;1.10;;;;;;;18.48;58.81;102078.53;5033423;28;20115;-55
2023/09/25 03:28:40;;;;;;;1.75;1.30;;;;;;;18.48;58.71;102073.97;5035990;28;20028;-55
2023/09/25 03:31:05;;;;;;;1.15;1.05;;;;;;;18.48;59.09;102078.53;5035544;28;20037;-55
2023/09/25 03:33:30;;;;;;;2.05;1.17;;;;;;;18.48;59.16;102078.53;5035471;28;20025;-55
2023/09/25 03:35:55;;;;;;;1.25;1.08;;;;;;;18.47;58.86;102076.81;5035330;28;20128;-55
2023/09/25 03:38:21;;;;;;;2.03;1.10;;;;;;;18.48;59.03;102078.53;5035587;28;20104;-55
2023/09/25 03:40:46;;;;;;;1.48;1.33;;;;;;;18.47;58.84;102071.44;5030818;28;20067;-55
2023/09/25 03:43:12;;;;;;;1.33;1.13;;;;;;;18.47;58.90;102060.63;5033932;28;20472;-55
2023/09/25 03:45:37;;;;;;;1.13;1.00;;;;;;;18.47;58.61;102071.44;5033416;28;20087;-55
2023/09/25 03:48:02;;;;;;;1.33;0.90;;;;;;;18.46;58.65;102067.00;5034586;28;20032;-56
2023/09/25 03:50:28;;;;;;;1.55;0.73;;;;;;;18.47;58.84;102068.72;5034494;28;20033;-56
2023/09/25 03:52:57;;;;;;;1.15;0.90;;;;;;;18.47;58.85;102071.44;5034744;28;20026;-56
2023/09/25 03:55:23;;;;;;;1.17;0.93;;;;;;;18.46;58.76;102070.53;5034839;28;20044;-56
2023/09/25 03:57:49;;;;;;;1.77;1.30;;;;;;;18.45;59.06;102071.53;5035576;28;20025;-56
2023/09/25 04:00:14;;;;;;;1.20;1.10;;;;;;;18.45;58.94;102079.63;5031545;28;20040;-56
2023/09/25 04:02:40;;;;;;;2.05;1.38;;;;;;;18.45;58.68;102076.06;5035253;28;20037;-56
2023/09/25 04:05:05;;;;;;;1.67;1.40;;;;;;;18.45;58.80;102078.75;5035270;28;20056;-56
2023/09/25 04:07:31;;;;;;;1.15;0.82;;;;;;;18.43;58.68;102081.59;5034905;28;20033;-55
2023/09/25 04:09:56;;;;;;;0.98;0.80;;;;;;;18.43;58.51;102081.59;5033204;28;20119;-56
2023/09/25 04:12:22;;;;;;;1.17;1.08;;;;;;;18.44;58.50;102085.13;5034241;28;20065;-55
2023/09/25 04:14:47;;;;;;;2.15;1.08;;;;;;;18.44;59.01;102085.13;5035206;28;20033;-56
2023/09/25 04:17:15;;;;;;;1.55;1.00;;;;;;;18.43;58.52;102080.72;5035324;28;20073;-56
2023/09/25 04:19:40;;;;;;;2.00;0.90;;;;;;;18.43;58.93;102086.09;5035155;28;20108;-56
2023/09/25 04:22:06;;;;;;;1.20;1.02;;;;;;;18.44;58.69;102090.53;5033718;28;20140;-56
2023/09/25 04:24:37;;;;;;;1.30;0.95;;;;;;;18.42;58.72;102087.94;5033014;28;20025;-56
2023/09/25 04:27:02;;;;;;;1.20;1.10;;;;;;;18.44;58.53;102085.13;5034310;28;20060;-56
2023/09/25 04:29:28;;;;;;;1.20;1.08;;;;;;;18.42;58.55;102079.84;5032035;28;20112;-56
2023/09/25 04:31:53;;;;;;;1.50;1.10;;;;;;;18.42;58.46;102089.78;5034369;28;20567;-56
2023/09/25 04:34:19;;;;;;;1.52;1.42;;;;;;;18.41;58.47;102086.25;5033647;28;20491;-56
2023/09/25 04:36:46;;;;;;;1.48;1.20;;;;;;;18.40;58.79;102092.59;5033864;28;20035;-56
2023/09/25 04:39:16;;;;;;;1.70;1.20;;;;;;;18.40;58.65;102087.22;5035022;28;20088;-56
2023/09/25 04:41:44;;;;;;;1.17;1.08;;;;;;;18.42;58.53;102103.28;5034558;28;20052;-56
2023/09/25 04:44:09;;;;;;;1.45;1.13;;;;;;;18.41;58.58;102104.25;5034247;28;20091;-55
2023/09/25 04:46:34;;;;;;;1.20;1.00;;;;;;;18.41;58.49;102102.44;5049562;28;20041;-55
2023/09/25 04:49:00;;;;;;;1.67;1.10;;;;;;;18.41;58.46;102101.53;5034065;28;20026;-56
2023/09/25 04:51:26;;;;;;;1.80;1.10;;;;;;;18.39;58.44;102101.69;5024308;28;20038;-56
2023/09/25 04:53:51;;;;;;;1.45;1.10;;;;;;;18.37;58.42;102100.91;5033610;28;20523;-56
2023/09/25 04:56:21;;;;;;;1.75;1.10;;;;;;;18.38;58.68;102104.50;5033892;28;20961;-56
2023/09/25 04:58:46;;;;;;;1.42;1.13;;;;;;;18.38;58.38;102099.94;5033820;28;20037;-56
2023/09/25 05:01:12;;;;;;;1.88;1.33;;;;;;;18.38;58.66;102099.94;5033712;28;20467;-56
2023/09/25 05:03:37;;;;;;;1.83;1.00;;;;;;;18.38;58.58;102102.66;5033408;28;20029;-56
2023/09/25 05:06:02;;;;;;;1.10;1.00;;;;;;;18.37;58.26;102106.31;5036636;28;20125;-55
2023/09/25 05:08:28;;;;;;;1.77;1.00;;;;;;;18.36;58.59;102104.59;5036199;28;20081;-55
2023/09/25 05:10:56;;;;;;;1.67;0.95;;;;;;;18.36;58.52;102108.16;5032758;28;20095;-56
2023/09/25 05:13:22;;;;;;;1.17;1.10;;;;;;;18.35;58.57;102101.06;5032109;28;20033;-55
2023/09/25 05:15:47;;;;;;;1.23;1.10;;;;;;;18.36;58.43;102101.91;5032449;28;20041;-55
2023/09/25 05:18:12;;;;;;;2.15;1.05;;;;;;;18.36;58.46;102107.31;5033954;28;20026;-55
2023/09/25 05:20:38;;;;;;;1.40;1.23;;;;;;;18.36;58.47;102112.69;5033534;28;20431;-55
2023/09/25 05:23:03;;;;;;;1.08;0.95;;;;;;;18.34;58.44;102118.19;5033547;28;20033;-55
2023/09/25 05:25:28;;;;;;;2.70;0.95;;;;;;;18.34;58.61;102118.19;5033255;28;20021;-55
2023/09/25 05:27:56;;;;;;;2.15;1.20;;;;;;;18.34;58.63;102115.50;5030487;28;20029;-55
2023/09/25 05:30:21;;;;;;;1.27;1.10;;;;;;;18.34;58.39;102109.25;5034029;28;20467;-55
2023/09/25 05:32:48;;;;;;;1.50;1.20;;;;;;;18.33;58.26;102111.09;5033652;28;20036;-56
2023/09/25 05:35:14;;;;;;;2.65;1.20;;;;;;;18.33;58.55;102119.19;5032881;28;20107;-55
2023/09/25 05:37:45;;;;;;;1.33;1.00;;;;;;;18.32;58.49;102119.31;5033658;28;20063;-55
2023/09/25 05:40:12;;;;;;;1.67;1.23;;;;;;;18.32;58.57;102108.53;5033512;28;20033;-55
2023/09/25 05:42:42;;;;;;;2.35;1.20;;;;;;;18.31;58.59;102113.03;5033565;28;20428;-55
2023/09/25 05:45:08;;;;;;;2.37;1.40;;;;;;;18.32;58.63;102111.22;5035199;28;20491;-55
2023/09/25 05:47:34;;;;;;;3.42;1.48;;;;;;;18.31;58.84;102115.72;5034625;28;20030;-55
2023/09/25 05:50:00;;;;;;;2.85;1.60;;;;;;;18.31;58.47;102113.03;5034864;28;20040;-55
2023/09/25 05:52:26;;;;;;;5.65;1.70;;;;;;;18.31;58.43;102121.13;5034857;28;20495;-55
2023/09/25 05:54:51;;;;;;;2.67;1.30;;;;;;;18.30;58.73;102114.03;5034658;28;20038;-55
2023/09/25 05:57:17;;;;;;;2.13;1.33;;;;;;;18.30;58.58;102118.56;5034345;28;20446;-55
2023/09/25 05:59:43;;;;;;;2.72;1.58;;;;;;;18.32;58.66;102116.63;5034299;28;20041;-55
2023/09/25 06:02:08;;;;;;;3.10;1.40;;;;;;;18.30;58.70;102114.03;5034108;28;20471;-55
2023/09/25 06:04:38;;;;;;;3.25;1.73;;;;;;;18.29;58.55;102117.69;5033903;28;20041;-55
2023/09/25 06:07:04;;;;;;;3.85;1.73;;;;;;;18.29;58.38;102125.78;5033918;28;20392;-55
2023/09/25 06:09:31;;;;;;;6.03;2.10;;;;;;;18.29;58.52;102133.00;5033701;28;20080;-55
2023/09/25 06:11:57;;;;;;;3.03;1.65;;;;;;;18.29;58.42;102133.00;5034113;28;20041;-55
2023/09/25 06:14:23;;;;;;;2.75;1.92;;;;;;;18.29;58.30;102127.63;5033901;28;20043;-55
2023/09/25 06:16:48;;;;;;;3.63;1.60;;;;;;;18.29;58.38;102123.06;5034207;28;20406;-55
2023/09/25 06:19:14;;;;;;;3.63;2.10;;;;;;;18.29;58.32;102125.78;5032833;28;20022;-55
2023/09/25 06:21:40;;;;;;;2.70;1.70;;;;;;;18.29;58.39;102125.78;5033466;28;20030;-55
2023/09/25 06:24:09;;;;;;;1.73;1.55;;;;;;;18.29;58.41;102124.94;5033058;28;20471;-55
2023/09/25 06:26:35;;;;;;;2.22;1.60;;;;;;;18.28;58.84;102124.06;5034383;28;20079;-55
2023/09/25 06:29:00;;;;;;;4.05;1.80;;;;;;;18.28;58.52;102121.38;5034904;28;20061;-55
2023/09/25 06:31:26;;;;;;;2.75;1.50;;;;;;;18.29;58.56;102133.00;5032485;28;20116;-55
2023/09/25 06:33:52;;;;;;;2.88;1.85;;;;;;;18.28;58.38;102137.56;5033857;28;20033;-55
2023/09/25 06:36:18;;;;;;;3.63;1.67;;;;;;;18.29;58.29;102130.31;5033439;28;20372;-55
2023/09/25 06:38:44;;;;;;;4.03;1.60;;;;;;;18.28;58.23;102132.16;5033766;28;20045;-56
2023/09/25 06:41:11;;;;;;;4.82;1.52;;;;;;;18.27;58.20;102130.44;5034007;28;20037;-56
2023/09/25 06:43:36;;;;;;;4.30;1.52;;;;;;;18.26;57.71;102136.81;5033768;28;20364;-55
2023/09/25 06:46:02;;;;;;;2.20;1.52;;;;;;;18.25;57.83;102134.22;5033884;28;20033;-55
2023/09/25 06:48:27;;;;;;;4.13;1.60;;;;;;;18.24;57.38;102129.78;5033882;28;20487;-56
2023/09/25 06:50:52;;;;;;;3.28;1.60;;;;;;;18.23;57.29;102134.34;5031618;28;20037;-55
2023/09/25 06:53:18;;;;;;;4.88;2.35;;;;;;;18.22;57.00;102132.63;5031693;28;20037;-55
2023/09/25 06:55:44;;;;;;;5.00;1.85;;;;;;;18.22;57.17;102131.75;5031461;28;20475;-56
2023/09/25 06:58:10;;;;;;;5.70;2.33;;;;;;;18.21;56.93;102128.19;5031734;28;20029;-55
2023/09/25 07:00:35;;;;;;;3.55;1.83;;;;;;;18.21;56.73;102130.03;5030130;28;20113;-56
2023/09/25 07:03:01;;;;;;;4.00;1.92;;;;;;;18.21;56.63;102133.59;5031656;28;20032;-55
2023/09/25 07:05:28;;;;;;;2.30;1.70;;;;;;;18.20;56.35;102128.31;5031844;28;20112;-56
2023/09/25 07:07:54;;;;;;;3.38;1.92;;;;;;;18.20;56.89;102128.31;5033486;28;20116;-56
2023/09/25 07:10:19;;;;;;;4.18;1.70;;;;;;;18.21;57.01;102124.66;5032003;28;20169;-56
2023/09/25 07:12:44;;;;;;;4.53;1.77;;;;;;;18.21;57.02;102130.91;5032688;28;20079;-56
2023/09/25 07:15:10;;;;;;;4.72;2.10;;;;;;;18.21;57.01;102130.91;5033733;28;20032;-55
2023/09/25 07:17:36;;;;;;;2.33;1.63;;;;;;;18.22;57.02;102132.63;5036383;28;20029;-55
2023/09/25 07:20:01;;;;;;;4.90;1.80;;;;;;;18.23;56.84;102134.34;5036600;28;20021;-56
2023/09/25 07:22:27;;;;;;;2.75;1.70;;;;;;;18.23;56.99;102134.34;5036286;28;20029;-56
2023/09/25 07:24:53;;;;;;;3.55;1.75;;;;;;;18.24;56.88;102133.38;5036058;28;20467;-55
2023/09/25 07:27:19;;;;;;;4.13;1.98;;;;;;;18.25;56.86;102137.78;5036146;28;20037;-55
2023/09/25 07:29:46;;;;;;;2.47;1.83;;;;;;;18.25;56.82;102129.69;5036101;28;20021;-56
2023/09/25 07:32:12;;;;;;;3.47;1.92;;;;;;;18.26;57.10;102126.03;5036070;28;20464;-56
2023/09/25 07:34:39;;;;;;;4.00;1.60;;;;;;;18.26;57.04;102126.03;5035993;28;20033;-55
2023/09/25 07:37:05;;;;;;;3.17;1.80;;;;;;;18.27;56.74;102126.88;5036076;28;20033;-56
2023/09/25 07:39:33;;;;;;;4.00;2.10;;;;;;;18.28;56.63;102125.91;5036272;28;20021;-55
2023/09/25 07:41:58;;;;;;;2.97;1.70;;;;;;;18.29;56.46;102123.06;5035821;28;20038;-56
2023/09/25 07:44:26;;;;;;;5.05;1.85;;;;;;;18.31;56.55;102133.75;5034347;28;20040;-55
2023/09/25 07:46:53;;;;;;;2.53;1.67;;;;;;;18.30;56.43;102122.13;5035506;28;20129;-56
2023/09/25 07:49:19;;;;;;;2.55;1.90;;;;;;;18.34;56.35;102122.75;5035518;28;20083;-56
2023/09/25 07:51:44;;;;;;;2.80;1.70;;;;;;;18.31;56.58;102118.44;5037294;28;20037;-56
2023/09/25 07:54:10;;;;;;;3.15;1.77;;;;;;;18.30;56.76;102119.41;5036861;28;20026;-55
2023/09/25 07:56:36;;;;;;;3.85;1.92;;;;;;;18.32;56.38;102124.69;5036955;28;20033;-55
2023/09/25 07:59:02;;;;;;;4.97;1.92;;;;;;;18.33;56.23;102118.31;5037707;28;20028;-56
2023/09/25 08:01:29;;;;;;;4.05;1.88;;;;;;;18.34;56.29;102120.91;5037181;28;20052;-56
2023/09/25 08:03:56;;;;;;;6.80;1.90;;;;;;;18.35;56.26;102136.13;5037088;28;20033;-55
2023/09/25 08:06:24;;;;;;;5.93;2.20;;;;;;;18.36;56.27;102135.13;5036253;28;20068;-56
2023/09/25 08:08:59;;;;;;;4.13;1.73;;;;;;;18.36;56.21;102137.81;5035754;28;20091;-56
2023/09/25 08:11:28;;;;;;;5.35;1.65;;;;;;;18.39;56.24;102135.88;5035902;28;20045;-56
2023/09/25 08:13:54;;;;;;;2.83;1.80;;;;;;;18.39;56.34;102138.56;5035904;28;20033;-55
2023/09/25 08:16:22;;;;;;;3.38;1.80;;;;;;;18.40;55.91;102141.16;5035881;28;20037;-56
2023/09/25 08:18:48;;;;;;;3.42;1.40;;;;;;;18.39;55.93;102143.94;5035809;28;20490;-55
2023/09/25 08:21:13;;;;;;;3.60;1.90;;;;;;;18.39;56.06;102134.03;5031789;28;20025;-55
2023/09/25 08:23:39;;;;;;;4.30;2.00;;;;;;;18.41;56.13;102136.59;5035266;28;20037;-55
2023/09/25 08:26:07;;;;;;;5.35;1.75;;;;;;;18.41;56.01;102137.47;5035632;28;20033;-55
2023/09/25 08:28:33;;;;;;;3.72;1.67;;;;;;;18.40;55.94;102138.44;5035623;28;20493;-56
2023/09/25 08:30:59;;;;;;;2.90;1.95;;;;;;;18.42;55.89;102133.78;5031230;28;20059;-55
2023/09/25 08:33:24;;;;;;;4.20;1.88;;;;;;;18.43;55.92;102140.03;5036246;28;20029;-55
2023/09/25 08:35:51;;;;;;;4.05;1.38;;;;;;;18.41;56.10;102126.69;5036177;28;20045;-55
2023/09/25 08:38:16;;;;;;;4.45;1.58;;;;;;;18.42;55.89;102123.00;5035913;28;20026;-55
2023/09/25 08:40:47;;;;;;;2.33;1.67;;;;;;;18.43;56.02;102119.34;5035851;28;20037;-56
2023/09/25 08:43:13;;;;;;;2.38;1.77;;;;;;;18.44;55.76;102125.59;5033748;28;20029;-56
2023/09/25 08:45:40;;;;;;;2.90;1.90;;;;;;;18.44;55.73;102114.81;5036532;28;20037;-55
2023/09/25 08:48:10;;;;;;;3.38;1.50;;;;;;;18.46;55.62;102118.25;5036437;28;20030;-55
2023/09/25 08:50:37;;;;;;;2.97;1.52;;;;;;;18.45;55.57;102109.28;5032484;28;20068;-56
2023/09/25 08:53:02;;;;;;;1.45;1.25;;;;;;;18.46;55.52;102116.41;5035028;28;20041;-56
2023/09/25 08:55:28;;;;;;;3.97;1.60;;;;;;;18.46;55.70;102115.53;5035014;28;20049;-56
2023/09/25 08:57:53;;;;;;;2.53;1.30;;;;;;;18.48;55.50;102108.19;5034884;28;20471;-56
2023/09/25 09:00:19;;;;;;;2.83;1.50;;;;;;;18.49;55.57;102112.63;5034743;28;20033;-56
2023/09/25 09:02:45;;;;;;;2.03;1.48;;;;;;;18.49;55.29;102109.91;5034651;28;20079;-55
2023/09/25 09:05:11;;;;;;;4.38;1.58;;;;;;;18.50;55.47;102115.16;5034629;28;20040;-55
2023/09/25 09:07:38;;;;;;;3.20;1.50;;;;;;;18.50;55.33;102119.72;5034955;28;20037;-56
2023/09/25 09:10:04;;;;;;;2.30;1.75;;;;;;;18.50;55.28;102112.47;5030596;28;20097;-55
2023/09/25 09:12:29;;;;;;;2.17;1.48;;;;;;;18.53;55.37;102114.09;5034180;28;20068;-56
2023/09/25 09:14:55;;;;;;;2.03;1.60;;;;;;;18.53;55.14;102119.50;5035465;28;20503;-56
2023/09/25 09:17:26;;;;;;;5.68;1.70;;;;;;;18.53;55.26;102119.50;5035588;28;20043;-56
2023/09/25 09:19:54;;;;;;;3.47;1.55;;;;;;;18.55;55.45;102104.03;5031795;28;20071;-56
2023/09/25 09:22:21;;;;;;;3.20;1.58;;;;;;;18.54;55.31;102100.50;5036896;28;20033;-55
2023/09/25 09:24:49;;;;;;;1.80;1.23;;;;;;;18.55;55.49;102112.13;5034822;28;20029;-55
2023/09/25 09:27:19;;;;;;;2.33;1.77;;;;;;;18.55;55.41;102112.13;5034962;28;20041;-56
2023/09/25 09:29:46;;;;;;;3.22;1.73;;;;;;;18.56;55.46;102116.53;5030898;28;20068;-55
2023/09/25 09:32:14;;;;;;;3.38;1.77;;;;;;;18.57;55.67;102118.28;5035327;28;20482;-56
2023/09/25 09:34:40;;;;;;;2.58;1.50;;;;;;;18.56;55.70;102114.72;5034773;28;20029;-55
2023/09/25 09:37:08;;;;;;;2.22;1.60;;;;;;;18.56;55.53;102112.03;5034465;28;20044;-55
2023/09/25 09:39:35;;;;;;;3.35;1.67;;;;;;;18.58;55.68;102106.47;5033792;28;20025;-56
2023/09/25 09:42:05;;;;;;;2.42;1.63;;;;;;;18.58;55.85;102119.13;5034027;28;20041;-56
2023/09/25 09:44:32;;;;;;;2.90;1.65;;;;;;;18.58;55.81;102114.56;5030476;28;20057;-56
2023/09/25 09:47:02;;;;;;;1.83;1.58;;;;;;;18.58;55.91;102117.28;5033789;28;20079;-56
2023/09/25 09:49:32;;;;;;;4.25;2.17;;;;;;;18.60;55.84;102107.25;5033640;28;20375;-56
2023/09/25 09:52:00;;;;;;;4.70;1.60;;;;;;;18.59;55.65;102121.69;5029347;28;20037;-55
2023/09/25 09:54:29;;;;;;;2.35;1.60;;;;;;;18.61;56.04;102121.59;5033958;28;20547;-56
2023/09/25 09:56:59;;;;;;;3.35;1.75;;;;;;;18.60;55.57;102131.53;5033659;28;20033;-55
2023/09/25 09:59:25;;;;;;;1.27;1.17;;;;;;;18.62;55.81;102124.19;5030589;28;20486;-55
2023/09/25 10:01:50;;;;;;;3.28;1.67;;;;;;;18.63;55.96;102133.97;5033389;28;20057;-56
2023/09/25 10:04:16;;;;;;;2.50;1.60;;;;;;;18.64;56.17;102137.53;5033557;28;20035;-55
2023/09/25 10:06:52;;;;;;;4.40;1.75;;;;;;;18.65;56.06;102134.72;5032768;28;20467;-56
2023/09/25 10:09:18;;;;;;;3.63;1.80;;;;;;;18.64;56.03;102133.00;5044848;28;20037;-56
2023/09/25 10:11:46;;;;;;;3.97;1.50;;;;;;;18.65;56.10;102125.75;5034304;28;20056;-55
2023/09/25 10:14:12;;;;;;;2.95;1.50;;;;;;;18.67;56.15;102124.66;5033850;28;20140;-56
2023/09/25 10:17:06;;;;;;;3.28;1.70;;;;;;;18.69;56.17;102121.84;5033923;28;20053;-55
2023/09/25 10:19:40;;;;;;;3.72;1.58;;;;;;;18.68;56.43;102123.69;5031455;28;20459;-56
2023/09/25 10:22:16;;;;;;;3.30;2.22;;;;;;;18.68;56.25;102122.84;5032953;28;20025;-56
2023/09/25 10:24:43;;;;;;;3.72;1.55;;;;;;;18.69;56.05;102113.75;5032815;28;20067;-56
2023/09/25 10:27:14;;;;;;;2.60;1.60;;;;;;;18.69;55.99;102109.22;5032905;28;20025;-56
2023/09/25 10:29:59;;;;;;;2.47;1.60;;;;;;;18.69;56.38;102114.59;5029872;28;20041;-55
2023/09/25 10:32:40;;;;;;;4.53;1.58;;;;;;;18.70;56.62;102110.94;5031112;28;20045;-56
2023/09/25 10:35:56;;;;;;;5.68;1.70;;;;;;;18.72;56.33;102119.78;5032403;28;20455;-56
2023/09/25 10:38:28;;;;;;;2.55;1.50;;;;;;;18.72;56.42;102121.63;5032933;28;20475;-55
2023/09/25 10:40:55;;;;;;;5.03;1.83;;;;;;;18.70;56.53;102121.72;5034222;28;20456;-56
2023/09/25 10:43:22;;;;;;;3.15;1.83;;;;;;;18.72;56.76;102119.78;5033895;28;20029;-55
2023/09/25 10:45:48;;;;;;;2.45;1.23;;;;;;;18.72;56.67;102117.06;5033984;28;20026;-56
2023/09/25 10:48:15;;;;;;;1.65;1.38;;;;;;;18.73;56.49;102112.53;5033874;28;20040;-55
2023/09/25 10:50:43;;;;;;;2.38;1.52;;;;;;;18.74;56.65;102108.88;5036213;28;20398;-55
2023/09/25 10:53:09;;;;;;;3.97;1.40;;;;;;;18.75;56.66;102108.75;5038035;28;20087;-56
2023/09/25 10:55:34;;;;;;;3.78;1.77;;;;;;;18.75;56.61;102102.47;5037435;28;20481;-55
2023/09/25 10:58:02;;;;;;;2.13;1.30;;;;;;;18.76;56.82;102099.66;5037358;28;20044;-56
2023/09/25 11:00:27;;;;;;;2.60;1.58;;;;;;;18.77;56.77;102100.50;5035765;28;20022;-55
2023/09/25 11:02:53;;;;;;;1.55;1.45;;;;;;;18.78;56.72;102106.78;5037728;28;20029;-55
2023/09/25 11:05:21;;;;;;;3.03;1.75;;;;;;;18.78;56.75;102114.88;5037438;28;20072;-55
2023/09/25 11:07:46;;;;;;;3.35;1.67;;;;;;;18.79;57.07;102120.16;5036634;28;20033;-55
2023/09/25 11:10:13;;;;;;;2.42;1.67;;;;;;;18.79;56.97;102124.69;5036650;28;20064;-55
2023/09/25 11:12:40;;;;;;;1.85;1.65;;;;;;;18.79;57.12;102120.16;5037060;28;20594;-56
2023/09/25 11:15:13;;;;;;;1.75;1.30;;;;;;;18.81;56.79;102128.13;5038043;28;20033;-55
2023/09/25 11:17:39;;;;;;;3.28;1.60;;;;;;;18.81;56.99;102128.13;5037798;28;20052;-55
2023/09/25 11:20:18;;;;;;;2.95;1.50;;;;;;;18.81;56.76;102123.63;5037494;28;20555;-55
2023/09/25 11:22:46;;;;;;;4.45;1.77;;;;;;;18.81;57.30;102118.22;5035282;28;20414;-55